Alcolu, SC

4:58 AM EST on January 30, 2015 (GMT -0500)
Santee Cooper Regional | Change Station
CLOSE
Current Station
Airport
Location: Manning,
Elevation: 105 ft
Nearby Weather Stations

Elev 105 ft 33.59 °N, 80.21 °W | Updated 3 minutes ago

Partly Cloudy
Partly Cloudy
54 °F
Feels Like 54 °F
N
7
Wind Variable Wind from SW

Today
High -- | Low -- °F
--% Chance of Precip.
Yesterday
High -- | Low -- °F
Precip. -- in
7:19 AM 5:49 PM
Waxing Gibbous, 81% visible
Pressure 30.00 in
Visibility 10.0 miles
Clouds Scattered Clouds 6000 ft
Overcast 11000 ft
Dew Point 37 °F
Humidity 54%
Rainfall 0.00 in
Snow Depth Not available.
UV 0 out of 12
Pollen 2.10 out of 12
Air Quality Not available.
Flu Activity Not available.
METAR KMNI 300955Z AUTO 22006KT 10SM SCT060 OVC110 12/03 A3000 RMK AO2

More Conditions Fewer Conditions

Pressure 30.00 in
Visibility 10.0 miles
Clouds Scattered Clouds 6000 ft
Overcast 11000 ft
Dew Point 37 °F
Humidity 54%
Rainfall 0.00 in
Snow Depth Not available.
UV 0 out of 12
Pollen 2.10 out of 12
Air Quality Not available.
Flu Activity Not available.
METAR KMNI 300955Z AUTO 22006KT 10SM SCT060 OVC110 12/03 A3000 RMK AO2

More Conditions Fewer Conditions

10-Day Weather Forecast

Almanac

Astronomy

Jan. 30, 2015 Rise Set
Actual Time
Civil Twilight
Nautical Twilight
Astronomical Twilight
Moon
Length of Visible Light
Length of Day
Tomorrow will be .
, % of the Moon is Illuminated

Today's Extremes

State Highs State Lows

Community

WunderPhotos

Upload Photos

1,791,737 photos uploaded!

WunderBlogs® & News

Nearby

Air Quality

  Air Quality AQ Index Pollutant
Not available.

Snow Depth

Station Depth Elevation

Earthquake Activity

City Distance Mag. Time & Date
Minimum magnitude displayed is 2.5.

Coastal Water Temperatures

Place Temperature

Nearby Weather Stations